createdAt,value
2018-08-20T00:01:18.038Z,14.88
2018-08-20T00:03:50.132Z,14.96
2018-08-20T00:06:20.502Z,14.92
2018-08-20T00:08:50.331Z,14.98
2018-08-20T00:11:20.097Z,14.94
2018-08-20T00:13:49.847Z,14.88
2018-08-20T00:16:19.397Z,14.96
2018-08-20T00:18:49.117Z,15.08
2018-08-20T00:21:18.493Z,15.13
2018-08-20T00:23:48.021Z,15.07
2018-08-20T00:26:17.676Z,15.04
2018-08-20T00:28:47.317Z,14.99
2018-08-20T00:31:17.120Z,14.85
2018-08-20T00:33:46.715Z,14.87
2018-08-20T00:36:16.604Z,14.83
2018-08-20T00:38:46.488Z,14.84
2018-08-20T00:41:16.184Z,14.81
2018-08-20T00:43:45.929Z,14.74
2018-08-20T00:46:15.577Z,14.72
2018-08-20T00:48:45.254Z,14.71
2018-08-20T00:51:14.721Z,14.78
2018-08-20T00:53:44.422Z,14.77
2018-08-20T00:56:13.913Z,14.82
2018-08-20T00:58:43.438Z,14.77
2018-08-20T01:01:13.123Z,14.74
2018-08-20T01:03:42.823Z,14.68
2018-08-20T01:06:12.328Z,14.67
2018-08-20T01:08:41.933Z,14.66
2018-08-20T01:11:11.642Z,14.65
2018-08-20T01:13:41.395Z,14.65
2018-08-20T01:16:10.979Z,14.61
2018-08-20T01:18:41.463Z,14.62
2018-08-20T01:21:11.001Z,14.60
2018-08-20T01:23:41.548Z,14.58
2018-08-20T01:26:11.323Z,14.58
2018-08-20T01:28:42.269Z,14.52
2018-08-20T01:31:12.003Z,14.53
2018-08-20T01:33:41.548Z,14.57
2018-08-20T01:36:11.295Z,14.60
2018-08-20T01:38:40.748Z,14.62
2018-08-20T01:41:10.469Z,14.56
2018-08-20T01:43:39.977Z,14.54
2018-08-20T01:46:10.298Z,14.48
2018-08-20T01:48:39.855Z,14.44
2018-08-20T01:51:09.477Z,14.39
2018-08-20T01:53:39.042Z,14.39
2018-08-20T01:56:08.664Z,14.37
2018-08-20T01:58:38.239Z,14.43
2018-08-20T02:01:07.936Z,14.52
2018-08-20T02:03:37.477Z,14.54
2018-08-20T02:06:07.444Z,14.60
2018-08-20T02:08:37.117Z,14.58
2018-08-20T02:11:06.982Z,14.52
2018-08-20T02:13:36.515Z,14.48
2018-08-20T02:16:06.188Z,14.46
2018-08-20T02:18:35.616Z,14.44
2018-08-20T02:21:05.098Z,14.43
2018-08-20T02:23:34.524Z,14.33
2018-08-20T02:26:04.283Z,14.35
2018-08-20T02:28:33.783Z,14.33
2018-08-20T02:31:03.403Z,14.29
2018-08-20T02:33:32.896Z,14.24
2018-08-20T02:36:02.687Z,14.25
2018-08-20T02:38:32.452Z,14.25
2018-08-20T02:41:02.332Z,14.22
2018-08-20T02:43:32.062Z,14.18
2018-08-20T02:46:01.646Z,14.18
2018-08-20T02:48:31.205Z,14.04
2018-08-20T02:51:00.756Z,14.02
2018-08-20T02:53:30.257Z,14.07
2018-08-20T02:55:59.879Z,14.20
2018-08-20T02:58:29.567Z,14.21
2018-08-20T03:00:59.292Z,14.10
2018-08-20T03:03:28.741Z,14.04
2018-08-20T03:05:58.363Z,14.02
2018-08-20T03:08:28.058Z,13.97
2018-08-20T03:10:57.628Z,13.95
2018-08-20T03:13:27.146Z,13.97
2018-08-20T03:15:56.879Z,13.97
2018-08-20T03:18:26.669Z,13.99
2018-08-20T03:20:56.236Z,14.05
2018-08-20T03:23:25.725Z,13.93
2018-08-20T03:25:55.476Z,13.99
2018-08-20T03:28:25.246Z,13.90
2018-08-20T03:30:55.000Z,13.97
2018-08-20T03:33:24.673Z,14.00
2018-08-20T03:35:54.285Z,14.01
2018-08-20T03:38:23.789Z,14.03
2018-08-20T03:40:53.348Z,14.04
2018-08-20T03:43:22.877Z,14.06
2018-08-20T03:45:52.485Z,14.09
2018-08-20T03:48:22.200Z,14.16
2018-08-20T03:50:51.805Z,14.37
2018-08-20T03:53:21.377Z,14.60
2018-08-20T03:55:51.005Z,14.72
2018-08-20T03:58:20.585Z,14.67
2018-08-20T04:00:50.206Z,14.60
2018-08-20T04:03:20.638Z,14.53
2018-08-20T04:05:50.362Z,14.42
2018-08-20T04:08:20.051Z,14.35
2018-08-20T04:10:49.706Z,14.49
2018-08-20T04:13:19.568Z,14.49
2018-08-20T04:15:49.232Z,14.49
2018-08-20T04:18:18.738Z,14.47
2018-08-20T04:20:48.439Z,14.45
2018-08-20T04:23:17.828Z,14.32
2018-08-20T04:25:47.353Z,14.34
2018-08-20T04:28:17.059Z,14.31
2018-08-20T04:30:46.661Z,14.36
2018-08-20T04:33:16.187Z,14.37
2018-08-20T04:35:47.012Z,14.36
2018-08-20T04:38:16.692Z,14.47
2018-08-20T04:40:46.371Z,14.53
2018-08-20T04:43:16.107Z,14.59
2018-08-20T04:45:45.749Z,14.73
2018-08-20T04:48:15.327Z,14.68
2018-08-20T04:50:45.937Z,14.84
2018-08-20T04:53:15.575Z,14.93
2018-08-20T04:55:45.149Z,15.01
2018-08-20T04:58:14.675Z,15.09
2018-08-20T05:00:44.365Z,15.14
2018-08-20T05:03:17.738Z,15.20
2018-08-20T05:05:47.344Z,15.26
2018-08-20T05:08:17.027Z,15.40
2018-08-20T05:10:46.560Z,15.54
2018-08-20T05:13:16.109Z,15.81
2018-08-20T05:15:45.745Z,16.05
2018-08-20T05:18:15.186Z,16.45
2018-08-20T05:20:44.771Z,16.70
2018-08-20T05:23:14.309Z,17.13
2018-08-20T05:25:44.012Z,17.54
2018-08-20T05:28:13.616Z,17.85
2018-08-20T05:30:43.315Z,18.24
2018-08-20T05:33:12.925Z,18.37
2018-08-20T05:35:42.535Z,18.60
2018-08-20T05:38:12.042Z,19.02
2018-08-20T05:40:42.026Z,19.17
2018-08-20T05:43:11.472Z,19.48
2018-08-20T05:45:41.094Z,19.96
2018-08-20T05:48:10.831Z,20.30
2018-08-20T05:50:40.417Z,20.72
2018-08-20T05:53:09.862Z,20.98
2018-08-20T05:55:39.627Z,21.19
2018-08-20T05:58:09.122Z,21.44
2018-08-20T06:00:38.721Z,21.88
2018-08-20T06:03:08.260Z,22.25
2018-08-20T06:05:38.016Z,22.47
2018-08-20T06:08:07.784Z,22.78
2018-08-20T06:10:37.411Z,22.77
2018-08-20T06:13:07.630Z,22.82
2018-08-20T06:15:37.276Z,23.38
2018-08-20T06:18:07.137Z,23.63
2018-08-20T06:20:36.826Z,23.78
2018-08-20T06:23:06.508Z,24.16
2018-08-20T06:25:36.154Z,24.02
2018-08-20T06:28:05.867Z,23.90
2018-08-20T06:30:35.501Z,24.40
2018-08-20T06:33:05.104Z,24.24
2018-08-20T06:35:34.575Z,24.10
2018-08-20T06:38:04.277Z,24.17
2018-08-20T06:40:33.736Z,24.12
2018-08-20T06:43:03.239Z,24.48
2018-08-20T06:45:32.793Z,24.95
2018-08-20T06:48:02.440Z,25.35
2018-08-20T06:50:32.106Z,25.20
2018-08-20T06:53:01.726Z,25.30
2018-08-20T06:55:31.324Z,25.17
2018-08-20T06:58:02.754Z,25.35
2018-08-20T07:00:33.233Z,25.21
2018-08-20T07:03:02.820Z,25.54
2018-08-20T07:05:32.438Z,25.65
2018-08-20T07:08:02.345Z,25.94
2018-08-20T07:10:38.118Z,25.70
2018-08-20T07:13:18.176Z,26.00
2018-08-20T07:15:47.693Z,26.17
2018-08-20T07:18:17.118Z,26.16
2018-08-20T07:20:46.950Z,26.59
2018-08-20T07:23:16.521Z,26.76
2018-08-20T07:25:46.235Z,27.57
2018-08-20T07:28:15.921Z,26.84
2018-08-20T07:30:47.383Z,27.15
2018-08-20T07:33:19.858Z,27.27
2018-08-20T07:35:50.781Z,27.31
2018-08-20T07:38:21.284Z,27.26
2018-08-20T07:40:50.912Z,27.24
2018-08-20T07:43:23.098Z,27.73
2018-08-20T07:45:57.823Z,27.29
2018-08-20T07:48:28.560Z,27.45
2018-08-20T07:50:59.184Z,27.57
2018-08-20T07:53:29.400Z,27.91
2018-08-20T07:56:01.594Z,28.14
2018-08-20T07:58:32.302Z,28.10
2018-08-20T08:01:05.723Z,28.01
2018-08-20T08:03:38.252Z,27.83
2018-08-20T08:06:11.541Z,28.05
2018-08-20T08:08:46.548Z,28.04
2018-08-20T08:11:16.149Z,28.26
2018-08-20T08:13:45.866Z,28.48
2018-08-20T08:16:15.529Z,28.74
2018-08-20T08:18:45.067Z,28.92
2018-08-20T08:21:14.915Z,28.89
2018-08-20T08:23:44.447Z,29.01
2018-08-20T08:26:13.926Z,29.21
2018-08-20T08:28:43.366Z,29.27
2018-08-20T08:31:12.906Z,29.35
2018-08-20T08:33:42.326Z,29.89
2018-08-20T08:36:11.933Z,29.74
2018-08-20T08:38:41.367Z,29.95
2018-08-20T08:41:11.133Z,30.26
2018-08-20T08:43:40.728Z,30.13
2018-08-20T08:46:10.265Z,29.94
2018-08-20T08:48:39.767Z,30.36
2018-08-20T08:51:09.313Z,30.50
2018-08-20T08:53:38.824Z,29.89
2018-08-20T08:56:09.373Z,30.48
2018-08-20T08:58:38.805Z,30.80
2018-08-20T09:01:09.871Z,30.68
2018-08-20T09:03:39.285Z,30.53
2018-08-20T09:06:10.426Z,30.37
2018-08-20T09:08:40.085Z,30.59
2018-08-20T09:11:10.869Z,30.99
2018-08-20T09:13:40.603Z,30.50
2018-08-20T09:16:11.385Z,30.59
2018-08-20T09:18:41.070Z,30.66
2018-08-20T09:21:10.586Z,30.88
2018-08-20T09:23:40.246Z,30.88
2018-08-20T09:26:09.707Z,31.13
2018-08-20T09:28:39.246Z,30.89
2018-08-20T09:31:08.685Z,30.61
2018-08-20T09:33:38.325Z,30.47
2018-08-20T09:36:07.934Z,30.52
2018-08-20T09:38:37.530Z,30.85
2018-08-20T09:41:07.065Z,31.07
2018-08-20T09:43:36.785Z,31.30
2018-08-20T09:46:06.245Z,31.25
2018-08-20T09:48:35.924Z,31.50
2018-08-20T09:51:05.404Z,31.58
2018-08-20T09:53:35.025Z,31.63
2018-08-20T09:56:04.732Z,31.19
2018-08-20T09:58:34.390Z,30.99
2018-08-20T10:01:03.925Z,31.18
2018-08-20T10:03:33.544Z,31.54
2018-08-20T10:06:02.952Z,31.59
2018-08-20T10:08:32.579Z,31.99
2018-08-20T10:11:02.107Z,31.90
2018-08-20T10:13:31.686Z,32.08
2018-08-20T10:16:01.066Z,31.38
2018-08-20T10:18:30.838Z,31.08
2018-08-20T10:21:00.386Z,31.79
2018-08-20T10:23:30.064Z,31.72
2018-08-20T10:25:59.445Z,31.90
2018-08-20T10:28:29.064Z,32.09
2018-08-20T10:30:58.652Z,32.33
2018-08-20T10:33:28.165Z,32.75
2018-08-20T10:35:57.823Z,32.39
2018-08-20T10:38:27.404Z,32.60
2018-08-20T10:40:56.725Z,32.68
2018-08-20T10:43:26.243Z,33.08
2018-08-20T10:46:00.743Z,33.04
2018-08-20T10:48:30.264Z,32.81
2018-08-20T10:50:59.792Z,32.99
2018-08-20T10:53:29.394Z,32.50
2018-08-20T10:55:59.005Z,32.25
2018-08-20T10:58:28.683Z,31.61
2018-08-20T11:00:58.123Z,31.84
2018-08-20T11:03:27.762Z,31.65
2018-08-20T11:05:57.184Z,32.58
2018-08-20T11:08:26.823Z,32.55
2018-08-20T11:10:56.771Z,33.15
2018-08-20T11:13:26.548Z,33.59
2018-08-20T11:15:56.010Z,33.32
2018-08-20T11:18:25.600Z,33.12
2018-08-20T11:20:55.043Z,32.73
2018-08-20T11:23:25.344Z,32.86
2018-08-20T11:25:54.791Z,32.88
2018-08-20T11:28:24.607Z,32.63
2018-08-20T11:30:54.169Z,32.36
2018-08-20T11:33:23.870Z,33.26
2018-08-20T11:35:53.813Z,33.10
2018-08-20T11:38:23.609Z,33.28
2018-08-20T11:40:53.388Z,32.85
2018-08-20T11:43:23.943Z,32.98
2018-08-20T11:45:53.717Z,33.03
2018-08-20T11:48:23.377Z,32.46
2018-08-20T11:50:53.109Z,32.54
2018-08-20T11:53:23.069Z,32.77
2018-08-20T11:55:52.833Z,32.71
2018-08-20T11:58:23.264Z,32.62
2018-08-20T12:00:52.982Z,33.15
2018-08-20T12:03:22.628Z,34.04
2018-08-20T12:05:52.174Z,33.78
2018-08-20T12:08:21.890Z,33.87
2018-08-20T12:10:51.607Z,33.97
2018-08-20T12:13:22.502Z,33.84
2018-08-20T12:15:53.404Z,33.49
2018-08-20T12:18:52.622Z,32.96
2018-08-20T12:21:36.385Z,33.20
2018-08-20T12:24:06.181Z,33.03
2018-08-20T12:26:37.260Z,32.96
2018-08-20T12:29:08.290Z,33.32
2018-08-20T12:31:40.890Z,32.90
2018-08-20T12:34:11.349Z,33.17
2018-08-20T12:36:41.151Z,32.86
2018-08-20T12:39:13.588Z,32.98
2018-08-20T12:41:43.520Z,32.91
2018-08-20T12:44:13.957Z,32.93
2018-08-20T12:46:43.652Z,33.53
2018-08-20T12:49:19.223Z,33.76
2018-08-20T12:51:53.191Z,34.19
2018-08-20T12:54:23.938Z,33.58
2018-08-20T12:56:54.367Z,33.41
2018-08-20T12:59:25.634Z,33.08
2018-08-20T13:01:59.229Z,32.86
2018-08-20T13:04:30.979Z,33.12
2018-08-20T13:07:01.607Z,33.38
2018-08-20T13:09:37.519Z,33.90
2018-08-20T13:12:07.534Z,33.54
2018-08-20T13:14:37.181Z,34.30
2018-08-20T13:17:07.293Z,33.83
2018-08-20T13:19:37.373Z,34.06
2018-08-20T13:22:07.571Z,34.67
2018-08-20T13:24:38.526Z,34.29
2018-08-20T13:27:09.082Z,33.45
2018-08-20T13:29:38.665Z,33.57
2018-08-20T13:32:14.333Z,33.62
2018-08-20T13:34:44.108Z,33.86
2018-08-20T13:37:13.799Z,34.06
2018-08-20T13:39:43.515Z,34.42
2018-08-20T13:42:12.969Z,34.51
2018-08-20T13:44:42.670Z,33.74
2018-08-20T13:47:18.469Z,33.48
2018-08-20T13:49:48.770Z,33.64
2018-08-20T13:52:18.471Z,33.68
2018-08-20T13:54:48.859Z,33.82
2018-08-20T13:57:21.040Z,33.71
2018-08-20T13:59:50.604Z,33.59
2018-08-20T14:02:20.271Z,33.61
2018-08-20T14:04:50.025Z,32.99
2018-08-20T14:07:19.598Z,33.56
2018-08-20T14:09:49.223Z,33.90
2018-08-20T14:12:18.667Z,33.94
2018-08-20T14:14:48.385Z,34.43
2018-08-20T14:17:17.874Z,34.68
2018-08-20T14:19:47.463Z,33.50
2018-08-20T14:22:16.984Z,33.55
2018-08-20T14:24:46.655Z,34.11
2018-08-20T14:27:16.189Z,33.47
2018-08-20T14:29:45.808Z,33.20
2018-08-20T14:32:15.457Z,33.22
2018-08-20T14:34:45.196Z,33.31
2018-08-20T14:37:14.669Z,33.38
2018-08-20T14:39:44.289Z,33.34
2018-08-20T14:42:13.891Z,33.71
2018-08-20T14:44:44.752Z,33.63
2018-08-20T14:47:14.445Z,33.43
2018-08-20T14:49:47.880Z,33.67
2018-08-20T14:52:17.240Z,33.74
2018-08-20T14:54:47.247Z,34.05
2018-08-20T14:57:16.890Z,33.94
2018-08-20T14:59:47.229Z,33.38
2018-08-20T15:02:16.724Z,33.37
2018-08-20T15:04:47.141Z,33.38
2018-08-20T15:07:16.508Z,33.41
2018-08-20T15:09:46.019Z,32.87
2018-08-20T15:12:15.559Z,33.19
2018-08-20T15:14:45.219Z,33.55
2018-08-20T15:17:14.652Z,33.52
2018-08-20T15:19:47.860Z,33.53
2018-08-20T15:22:17.321Z,32.95
2018-08-20T15:24:46.843Z,33.47
2018-08-20T15:27:16.366Z,33.45
2018-08-20T15:29:45.904Z,33.67
2018-08-20T15:32:15.319Z,34.06
2018-08-20T15:34:44.995Z,34.46
2018-08-20T15:37:14.534Z,33.87
2018-08-20T15:39:44.022Z,33.87
2018-08-20T15:42:13.631Z,33.79
2018-08-20T15:44:50.088Z,33.71
2018-08-20T15:47:19.786Z,33.41
2018-08-20T15:49:49.353Z,33.60
2018-08-20T15:52:18.837Z,33.51
2018-08-20T15:54:48.223Z,33.48
2018-08-20T15:57:17.866Z,33.25
2018-08-20T15:59:47.673Z,32.77
2018-08-20T16:02:17.444Z,32.86
2018-08-20T16:04:46.851Z,33.51
2018-08-20T16:07:16.096Z,33.98
2018-08-20T16:09:45.786Z,33.90
2018-08-20T16:12:15.433Z,33.84
2018-08-20T16:14:45.155Z,33.56
2018-08-20T16:17:14.732Z,32.91
2018-08-20T16:19:44.621Z,33.29
2018-08-20T16:22:13.875Z,33.14
2018-08-20T16:24:43.328Z,33.01
2018-08-20T16:27:12.488Z,33.05
2018-08-20T16:29:41.913Z,32.58
2018-08-20T16:32:11.279Z,32.23
2018-08-20T16:34:40.669Z,31.84
2018-08-20T16:37:09.915Z,31.65
2018-08-20T16:39:39.351Z,31.62
2018-08-20T16:42:09.178Z,31.43
2018-08-20T16:44:39.114Z,31.23
2018-08-20T16:47:08.894Z,30.68
2018-08-20T16:49:38.655Z,30.33
2018-08-20T16:52:08.682Z,30.04
2018-08-20T16:54:38.494Z,29.57
2018-08-20T16:57:08.021Z,29.46
2018-08-20T16:59:37.701Z,29.22
2018-08-20T17:02:12.226Z,28.88
2018-08-20T17:04:42.635Z,29.06
2018-08-20T17:07:19.117Z,28.80
2018-08-20T17:09:56.532Z,28.49
2018-08-20T17:12:26.466Z,28.13
2018-08-20T17:14:56.870Z,27.97
2018-08-20T17:17:26.502Z,27.62
2018-08-20T17:19:56.243Z,27.09
2018-08-20T17:22:25.698Z,26.71
2018-08-20T17:24:56.419Z,25.73
2018-08-20T17:27:26.009Z,25.09
2018-08-20T17:29:56.911Z,24.74
2018-08-20T17:32:28.306Z,24.59
2018-08-20T17:34:57.761Z,24.65
2018-08-20T17:37:27.428Z,24.58
2018-08-20T17:40:04.073Z,24.48
2018-08-20T17:42:34.356Z,24.10
2018-08-20T17:45:04.362Z,23.75
2018-08-20T17:47:34.200Z,23.76
2018-08-20T17:50:03.552Z,23.36
2018-08-20T17:52:38.330Z,22.85
2018-08-20T17:55:07.800Z,22.53
2018-08-20T17:57:37.368Z,22.26
2018-08-20T18:00:45.713Z,21.99
2018-08-20T18:03:26.484Z,21.98
2018-08-20T18:06:00.850Z,21.98
2018-08-20T18:08:31.419Z,21.90
2018-08-20T18:11:01.268Z,21.81
2018-08-20T18:13:41.062Z,21.72
2018-08-20T18:16:11.629Z,21.60
2018-08-20T18:18:42.230Z,21.47
2018-08-20T18:21:11.474Z,21.40
2018-08-20T18:23:40.921Z,20.87
2018-08-20T18:26:10.389Z,20.88
2018-08-20T18:28:46.507Z,20.85
2018-08-20T18:31:22.632Z,20.75
2018-08-20T18:33:52.062Z,20.41
2018-08-20T18:36:24.349Z,20.24
2018-08-20T18:38:56.159Z,20.16
2018-08-20T18:42:07.525Z,20.18
2018-08-20T18:44:36.975Z,20.08
2018-08-20T18:47:07.191Z,19.93
2018-08-20T18:49:45.159Z,19.80
2018-08-20T18:52:14.926Z,19.67
2018-08-20T18:54:48.325Z,19.49
2018-08-20T18:57:24.271Z,19.42
2018-08-20T18:59:54.507Z,19.41
2018-08-20T19:03:01.230Z,19.25
2018-08-20T19:05:39.722Z,19.24
2018-08-20T19:08:13.469Z,19.24
2018-08-20T19:10:42.976Z,19.31
2018-08-20T19:13:12.500Z,19.22
2018-08-20T19:15:45.057Z,19.24
2018-08-20T19:18:19.996Z,19.34
2018-08-20T19:20:49.709Z,19.42
2018-08-20T19:23:19.296Z,19.38
2018-08-20T19:25:48.860Z,19.36
2018-08-20T19:28:24.322Z,19.21
2018-08-20T19:30:55.777Z,19.12
2018-08-20T19:33:26.826Z,19.20
2018-08-20T19:35:56.830Z,19.18
2018-08-20T19:38:26.362Z,19.23
2018-08-20T19:41:02.209Z,19.33
2018-08-20T19:44:05.070Z,19.38
2018-08-20T19:46:38.952Z,19.49
2018-08-20T19:49:13.025Z,19.51
2018-08-20T19:51:44.860Z,19.61
2018-08-20T19:54:15.920Z,19.69
2018-08-20T19:56:46.093Z,19.75
2018-08-20T19:59:18.856Z,19.78
2018-08-20T20:01:48.573Z,19.77
2018-08-20T20:04:18.014Z,19.82
2018-08-20T20:06:49.718Z,19.88
2018-08-20T20:09:19.145Z,19.87
2018-08-20T20:11:51.943Z,19.96
2018-08-20T20:14:21.684Z,19.91
2018-08-20T20:16:52.196Z,19.95
2018-08-20T20:19:21.865Z,19.98
2018-08-20T20:21:52.474Z,19.96
2018-08-20T20:24:22.014Z,19.85
2018-08-20T20:26:52.954Z,19.87
2018-08-20T20:29:22.512Z,19.93
2018-08-20T20:31:52.025Z,19.92
2018-08-20T20:34:21.560Z,19.97
2018-08-20T20:36:51.196Z,19.95
2018-08-20T20:39:20.727Z,20.00
2018-08-20T20:41:50.178Z,19.99
2018-08-20T20:44:19.610Z,19.96
2018-08-20T20:46:49.099Z,19.86
2018-08-20T20:49:18.579Z,19.79
2018-08-20T20:51:48.088Z,19.78
2018-08-20T20:54:17.635Z,19.75
2018-08-20T20:56:47.108Z,19.77
2018-08-20T20:59:16.573Z,19.71
2018-08-20T21:01:46.190Z,19.79
2018-08-20T21:04:15.824Z,19.68
2018-08-20T21:06:45.314Z,19.71
2018-08-20T21:09:14.834Z,19.69
2018-08-20T21:11:44.423Z,19.67
2018-08-20T21:14:14.007Z,19.59
2018-08-20T21:16:43.612Z,19.53
2018-08-20T21:19:13.248Z,19.54
2018-08-20T21:21:42.711Z,19.55
2018-08-20T21:24:12.222Z,19.55
2018-08-20T21:26:41.715Z,19.56
2018-08-20T21:29:11.104Z,19.55
2018-08-20T21:31:45.485Z,19.53
2018-08-20T21:34:14.968Z,19.60
2018-08-20T21:36:44.260Z,19.57
2018-08-20T21:39:13.693Z,19.55
2018-08-20T21:41:43.156Z,19.56
2018-08-20T21:44:12.677Z,19.55
2018-08-20T21:46:42.139Z,19.55
2018-08-20T21:49:12.216Z,19.46
2018-08-20T21:51:46.519Z,19.42
2018-08-20T21:54:21.654Z,19.36
2018-08-20T21:56:53.396Z,19.31
2018-08-20T21:59:22.933Z,19.33
2018-08-20T22:01:52.427Z,19.38
2018-08-20T22:04:22.938Z,19.44
2018-08-20T22:06:52.272Z,19.36
2018-08-20T22:09:21.991Z,19.38
2018-08-20T22:11:54.831Z,19.44
2018-08-20T22:14:24.580Z,19.38
2018-08-20T22:16:54.193Z,19.38
2018-08-20T22:19:23.813Z,19.33
2018-08-20T22:21:53.390Z,19.34
2018-08-20T22:24:23.138Z,19.24
2018-08-20T22:26:56.736Z,19.25
2018-08-20T22:29:34.263Z,19.26
2018-08-20T22:32:06.499Z,19.24
2018-08-20T22:34:35.926Z,19.15
2018-08-20T22:37:07.131Z,19.18
2018-08-20T22:39:36.788Z,19.20
2018-08-20T22:42:06.283Z,19.22
2018-08-20T22:44:35.801Z,19.22
2018-08-20T22:47:05.373Z,19.22
2018-08-20T22:49:34.832Z,19.12
2018-08-20T22:52:04.448Z,19.09
2018-08-20T22:54:34.123Z,19.09
2018-08-20T22:57:03.980Z,19.03
2018-08-20T22:59:33.581Z,19.03
2018-08-20T23:02:02.968Z,19.02
2018-08-20T23:04:32.595Z,18.98
2018-08-20T23:07:06.037Z,18.95
2018-08-20T23:09:35.555Z,18.82
2018-08-20T23:12:04.897Z,18.78
2018-08-20T23:14:35.506Z,18.61
2018-08-20T23:17:05.081Z,18.69
2018-08-20T23:19:34.545Z,18.68
2018-08-20T23:22:03.921Z,18.66
2018-08-20T23:24:33.385Z,18.64
2018-08-20T23:27:02.661Z,18.67
2018-08-20T23:29:32.125Z,18.63
2018-08-20T23:32:01.550Z,18.48
2018-08-20T23:34:31.095Z,18.31
2018-08-20T23:37:00.442Z,18.12
2018-08-20T23:39:30.029Z,18.01
2018-08-20T23:41:59.776Z,17.79
2018-08-20T23:44:29.215Z,17.66
2018-08-20T23:46:58.676Z,17.67
2018-08-20T23:49:28.276Z,17.67
2018-08-20T23:51:57.720Z,17.63
2018-08-20T23:54:27.227Z,17.60
2018-08-20T23:56:56.742Z,17.51
2018-08-20T23:59:26.355Z,17.48
